Time;durP1;ratioP1;P1;durP2;ratioP2;P2;SDS_P1;SDS_P2;PMS_P1;PMS_P2;Temp;Humidity;BMP_temperature;BMP_pressure;BME280_temperature;BME280_humidity;BME280_pressure;Samples;Min_cycle;Max_cycle;Signal;HPM_P1;HPM_P2
2022/08/26 00:01:56;;;;;;;0.40;0.40;;;29.50;58.40;;;;;;5041185;28;89017;-50
2022/08/26 00:04:24;;;;;;;2.97;0.40;;;29.50;58.50;;;;;;5043586;28;86909;-51
2022/08/26 00:06:53;;;;;;;0.50;0.20;;;29.50;58.40;;;;;;5042277;28;87105;-50
2022/08/26 00:09:21;;;;;;;1.43;0.50;;;29.50;58.50;;;;;;5042959;28;87046;-50
2022/08/26 00:11:51;;;;;;;1.47;0.40;;;29.50;58.50;;;;;;5040846;28;88900;-51
2022/08/26 00:14:19;;;;;;;0.40;0.30;;;29.50;58.40;;;;;;5042891;28;86982;-50
2022/08/26 00:16:47;;;;;;;0.50;0.43;;;29.50;58.40;;;;;;5042060;28;87148;-50
2022/08/26 00:19:18;;;;;;;0.57;0.27;;;29.50;58.40;;;;;;5041976;28;88035;-50
2022/08/26 00:21:47;;;;;;;0.30;0.30;;;29.50;58.30;;;;;;5032705;28;89832;-52
2022/08/26 00:24:16;;;;;;;0.33;0.30;;;29.50;58.40;;;;;;5043212;28;87168;-50
2022/08/26 00:26:44;;;;;;;0.47;0.47;;;29.50;58.50;;;;;;5043454;28;86925;-50
2022/08/26 00:29:12;;;;;;;0.43;0.43;;;29.50;58.50;;;;;;5041600;28;89163;-51
2022/08/26 00:31:41;;;;;;;0.20;0.20;;;29.50;59.10;;;;;;5041139;27;88923;-50
2022/08/26 00:34:12;;;;;;;0.20;0.20;;;29.50;58.50;;;;;;5043050;27;86984;-50
2022/08/26 00:36:42;;;;;;;2.03;0.30;;;29.50;58.50;;;;;;5041631;28;86228;-52
2022/08/26 00:39:10;;;;;;;0.20;0.20;;;29.50;58.50;;;;;;5040935;28;87979;-51
2022/08/26 00:41:39;;;;;;;0.20;0.20;;;29.50;58.50;;;;;;5022169;28;88859;-50
2022/08/26 00:44:07;;;;;;;0.47;0.13;;;29.50;58.30;;;;;;5021261;28;87961;-50
2022/08/26 00:46:39;;;;;;;1.40;0.50;;;29.40;58.50;;;;;;5021385;28;86989;-50
2022/08/26 00:49:15;;;;;;;0.47;0.30;;;29.40;58.50;;;;;;5020693;28;89332;-51
2022/08/26 00:51:47;;;;;;;2.97;0.37;;;29.40;58.50;;;;;;5020540;28;88904;-50
2022/08/26 00:54:15;;;;;;;0.23;0.23;;;29.40;59.20;;;;;;5021968;28;87610;-51
2022/08/26 00:56:46;;;;;;;1.33;0.27;;;29.40;58.70;;;;;;5021916;28;87029;-50
2022/08/26 00:59:15;;;;;;;0.57;0.33;;;29.40;58.50;;;;;;5019864;28;88933;-51
2022/08/26 01:01:44;;;;;;;1.00;0.30;;;29.40;58.80;;;;;;5021524;28;88539;-51
2022/08/26 01:04:15;;;;;;;0.23;0.20;;;29.40;58.80;;;;;;5008039;28;87161;-50
2022/08/26 01:06:43;;;;;;;1.07;0.30;;;29.40;58.70;;;;;;5020685;28;87003;-50
2022/08/26 01:09:12;;;;;;;0.43;0.37;;;29.40;58.90;;;;;;5020237;28;90173;-50
2022/08/26 01:11:40;;;;;;;1.30;0.20;;;29.40;58.90;;;;;;5017753;28;89910;-51
2022/08/26 01:14:10;;;;;;;2.87;0.60;;;29.40;58.90;;;;;;5021538;28;87089;-50
2022/08/26 01:16:38;;;;;;;1.30;0.50;;;29.40;58.80;;;;;;5021234;28;87008;-50
2022/08/26 01:19:14;;;;;;;0.40;0.40;;;29.40;58.90;;;;;;5022205;28;89132;-50
2022/08/26 01:21:45;;;;;;;4.90;0.80;;;29.50;58.80;;;;;;5020095;28;88851;-50
2022/08/26 01:24:14;;;;;;;0.70;0.30;;;29.40;58.80;;;;;;5020023;28;87908;-50
2022/08/26 01:26:43;;;;;;;0.33;0.30;;;29.40;59.00;;;;;;5020101;28;86233;-50
2022/08/26 01:29:13;;;;;;;1.13;0.40;;;29.40;59.00;;;;;;5020748;28;89040;-50
2022/08/26 01:31:42;;;;;;;0.20;0.20;;;29.30;58.90;;;;;;5019923;28;88970;-50
2022/08/26 01:34:15;;;;;;;0.33;0.33;;;29.30;58.80;;;;;;5021150;28;87880;-50
2022/08/26 01:36:43;;;;;;;0.20;0.20;;;29.30;58.80;;;;;;5020782;28;87279;-51
2022/08/26 01:39:19;;;;;;;2.77;0.37;;;29.30;59.00;;;;;;5020034;28;89183;-50
2022/08/26 01:41:48;;;;;;;2.30;0.20;;;29.40;59.00;;;;;;5039394;27;87745;-51
2022/08/26 01:44:22;;;;;;;0.17;0.17;;;29.40;59.00;;;;;;5039961;27;86924;-50
2022/08/26 01:46:50;;;;;;;0.60;0.60;;;29.30;58.90;;;;;;5041163;28;87095;-51
2022/08/26 01:49:18;;;;;;;0.43;0.30;;;29.30;59.10;;;;;;5040789;28;89208;-50
2022/08/26 01:51:46;;;;;;;0.20;0.20;;;29.30;59.10;;;;;;5042487;28;88967;-51
2022/08/26 01:54:14;;;;;;;0.30;0.30;;;29.30;59.10;;;;;;5041662;28;86937;-51
2022/08/26 01:56:44;;;;;;;0.20;0.20;;;29.30;59.10;;;;;;5041451;28;87116;-51
2022/08/26 01:59:13;;;;;;;1.13;0.40;;;29.30;59.10;;;;;;5020930;28;89026;-51
2022/08/26 02:01:41;;;;;;;2.37;0.50;;;29.30;58.90;;;;;;5039680;28;89698;-51
2022/08/26 02:04:13;;;;;;;0.40;0.30;;;29.30;59.00;;;;;;5041582;28;87077;-51
2022/08/26 02:06:41;;;;;;;1.50;0.30;;;29.30;58.80;;;;;;5039396;28;88464;-51
2022/08/26 02:09:09;;;;;;;0.60;0.40;;;29.20;58.90;;;;;;5040657;27;89385;-51
2022/08/26 02:11:37;;;;;;;0.40;0.40;;;29.20;59.00;;;;;;5040757;28;89039;-51
2022/08/26 02:14:09;;;;;;;2.83;0.30;;;29.20;59.00;;;;;;5040028;28;87016;-50
2022/08/26 02:16:40;;;;;;;0.20;0.20;;;29.20;58.80;;;;;;5041792;28;86268;-51
2022/08/26 02:19:11;;;;;;;0.20;0.20;;;29.10;58.90;;;;;;5041185;28;89167;-50
2022/08/26 02:21:44;;;;;;;1.33;0.57;;;29.10;58.70;;;;;;5040228;28;88839;-51
2022/08/26 02:24:19;;;;;;;0.77;0.20;;;29.10;58.80;;;;;;5040760;28;87882;-50
2022/08/26 02:26:47;;;;;;;0.30;0.30;;;29.20;58.70;;;;;;5041454;28;87667;-51
2022/08/26 02:29:22;;;;;;;0.20;0.20;;;29.10;58.90;;;;;;5041475;28;88236;-51
2022/08/26 02:31:50;;;;;;;0.30;0.30;;;29.10;58.70;;;;;;5040310;28;88898;-51
2022/08/26 02:34:20;;;;;;;0.87;0.27;;;29.10;58.80;;;;;;5040415;28;87031;-51
2022/08/26 02:36:48;;;;;;;1.70;0.60;;;29.20;58.70;;;;;;5039510;28;88430;-51
2022/08/26 02:39:17;;;;;;;0.40;0.40;;;29.20;58.80;;;;;;5041117;28;89276;-51
2022/08/26 02:41:49;;;;;;;0.10;0.10;;;29.20;58.80;;;;;;5040590;28;88931;-51
2022/08/26 02:44:18;;;;;;;1.33;0.60;;;29.10;59.10;;;;;;5040305;28;88607;-51
2022/08/26 02:46:48;;;;;;;0.27;0.27;;;29.10;58.80;;;;;;5039907;27;87063;-51
2022/08/26 02:49:16;;;;;;;0.20;0.20;;;29.00;58.60;;;;;;5022666;28;89986;-51
2022/08/26 02:51:44;;;;;;;0.20;0.20;;;29.10;58.80;;;;;;5040748;28;89982;-51
2022/08/26 02:54:12;;;;;;;0.20;0.20;;;29.10;58.70;;;;;;5041028;27;87033;-50
2022/08/26 02:56:40;;;;;;;0.33;0.20;;;29.10;58.60;;;;;;5043696;28;87055;-50
2022/08/26 02:59:11;;;;;;;0.17;0.17;;;29.10;58.70;;;;;;5043670;28;89132;-50
2022/08/26 03:01:40;;;;;;;1.73;0.40;;;29.10;58.70;;;;;;5044580;27;88968;-51
2022/08/26 03:04:10;;;;;;;0.20;0.20;;;29.10;58.50;;;;;;5044265;28;87071;-51
2022/08/26 03:06:39;;;;;;;0.13;0.13;;;29.10;58.50;;;;;;5044132;28;86286;-51
2022/08/26 03:09:08;;;;;;;0.77;0.50;;;29.10;58.50;;;;;;5027598;28;89101;-51
2022/08/26 03:11:46;;;;;;;0.53;0.40;;;28.90;58.50;;;;;;5043303;27;88891;-51
2022/08/26 03:14:14;;;;;;;0.20;0.20;;;29.10;58.50;;;;;;5051976;27;87903;-51
2022/08/26 03:16:44;;;;;;;0.60;0.40;;;29.10;58.70;;;;;;5055219;27;86920;-51
2022/08/26 03:19:15;;;;;;;0.33;0.30;;;29.10;58.50;;;;;;5023856;28;89213;-51
2022/08/26 03:21:44;;;;;;;0.30;0.20;;;29.10;58.60;;;;;;5040672;28;88799;-51
2022/08/26 03:24:14;;;;;;;1.63;0.50;;;29.10;58.60;;;;;;5043762;27;86976;-51
2022/08/26 03:26:42;;;;;;;3.73;0.70;;;29.10;58.60;;;;;;5043416;28;87118;-51
2022/08/26 03:32:07;;;;;;;0.70;0.40;;;29.40;59.30;;;;;;5045831;27;87625;-50
2022/08/26 03:34:36;;;;;;;0.50;0.50;;;29.10;58.50;;;;;;5043786;27;86958;-50
2022/08/26 03:37:05;;;;;;;1.33;0.87;;;29.10;58.50;;;;;;5043248;28;86896;-50
2022/08/26 03:39:33;;;;;;;1.67;0.60;;;29.10;59.20;;;;;;5042092;27;90315;-50
2022/08/26 03:42:01;;;;;;;0.43;0.43;;;29.10;58.50;;;;;;5042549;28;90000;-51
2022/08/26 03:44:30;;;;;;;2.27;0.90;;;29.10;58.60;;;;;;5043134;28;87339;-50
2022/08/26 03:46:59;;;;;;;0.60;0.60;;;29.10;58.50;;;;;;5043428;28;87074;-50
2022/08/26 03:49:31;;;;;;;1.03;0.70;;;29.10;58.50;;;;;;5043180;28;89122;-50
2022/08/26 03:51:59;;;;;;;1.27;0.40;;;29.10;58.40;;;;;;5042875;28;88961;-50
2022/08/26 03:54:27;;;;;;;0.90;0.60;;;29.10;58.50;;;;;;5043448;28;86710;-50
2022/08/26 03:56:55;;;;;;;2.53;1.00;;;29.10;58.60;;;;;;5044140;28;86312;-51
2022/08/26 03:59:23;;;;;;;1.00;0.90;;;29.00;58.60;;;;;;5043178;28;89242;-51
2022/08/26 04:01:51;;;;;;;0.83;0.83;;;29.00;58.60;;;;;;5043101;28;92151;-51
2022/08/26 04:04:19;;;;;;;1.83;0.97;;;29.00;58.60;;;;;;5042244;28;89226;-50
2022/08/26 04:06:56;;;;;;;0.73;0.73;;;29.00;58.60;;;;;;5041755;27;86756;-51
2022/08/26 04:09:24;;;;;;;1.50;1.03;;;29.00;58.50;;;;;;5043009;28;89142;-51
2022/08/26 04:11:52;;;;;;;2.60;1.00;;;29.10;58.50;;;;;;5042595;28;90669;-51
2022/08/26 04:14:22;;;;;;;1.00;0.80;;;29.10;58.70;;;;;;5043260;28;87030;-51
2022/08/26 04:16:50;;;;;;;1.03;0.90;;;29.10;58.50;;;;;;5042916;28;87007;-51
2022/08/26 04:19:19;;;;;;;1.33;0.73;;;29.00;58.60;;;;;;5042284;28;89193;-51
2022/08/26 04:21:47;;;;;;;0.50;0.50;;;29.10;58.70;;;;;;5043013;28;88934;-51
2022/08/26 04:24:19;;;;;;;1.10;1.00;;;29.00;58.60;;;;;;5043044;28;86945;-50
2022/08/26 04:26:47;;;;;;;2.10;1.50;;;29.00;58.60;;;;;;5042633;28;87201;-51
2022/08/26 04:29:16;;;;;;;3.03;1.23;;;29.00;58.70;;;;;;5040601;28;90122;-51
2022/08/26 04:31:45;;;;;;;1.37;1.07;;;29.00;58.60;;;;;;5041268;28;89747;-51
2022/08/26 04:34:14;;;;;;;1.73;1.03;;;29.00;58.70;;;;;;5042149;27;87170;-51
2022/08/26 04:36:43;;;;;;;1.30;1.20;;;29.00;58.70;;;;;;5042785;28;86856;-51
2022/08/26 04:39:15;;;;;;;2.87;1.07;;;29.00;58.60;;;;;;5042282;28;89535;-51
2022/08/26 04:41:47;;;;;;;0.77;0.70;;;29.00;58.60;;;;;;5041967;28;86830;-51
2022/08/26 04:44:17;;;;;;;1.43;0.93;;;29.20;58.60;;;;;;5042777;28;87110;-51
2022/08/26 04:46:45;;;;;;;4.30;1.00;;;29.00;58.60;;;;;;5042571;28;86359;-51
2022/08/26 04:49:13;;;;;;;1.37;0.70;;;29.00;58.70;;;;;;5041394;27;89163;-51
2022/08/26 04:51:41;;;;;;;1.80;0.73;;;29.00;58.70;;;;;;5042354;28;88840;-51
2022/08/26 04:54:11;;;;;;;0.57;0.40;;;29.00;58.70;;;;;;5042202;28;88009;-51
2022/08/26 04:56:41;;;;;;;0.90;0.47;;;29.00;58.70;;;;;;5042190;28;87145;-50
2022/08/26 04:59:14;;;;;;;0.30;0.30;;;29.00;58.70;;;;;;5041851;28;87907;-51
2022/08/26 05:01:44;;;;;;;1.10;0.50;;;28.90;58.80;;;;;;5036001;28;88927;-51
2022/08/26 05:04:14;;;;;;;1.83;0.40;;;28.80;59.00;;;;;;5041640;28;87126;-51
2022/08/26 05:06:43;;;;;;;0.20;0.20;;;28.80;58.90;;;;;;5042413;28;86905;-51
2022/08/26 05:09:12;;;;;;;1.63;0.53;;;28.80;59.10;;;;;;5041533;28;89230;-51
2022/08/26 05:11:42;;;;;;;1.97;0.63;;;28.80;58.90;;;;;;5041794;28;88815;-51
2022/08/26 05:14:12;;;;;;;0.90;0.30;;;28.80;59.20;;;;;;5042116;27;87166;-51
2022/08/26 05:16:40;;;;;;;2.70;0.47;;;28.80;59.20;;;;;;5041871;28;87049;-51
2022/08/26 05:19:08;;;;;;;0.50;0.30;;;28.80;59.20;;;;;;5022836;28;90209;-51
2022/08/26 05:21:37;;;;;;;0.73;0.37;;;28.80;59.20;;;;;;5041099;28;90011;-52
2022/08/26 05:24:06;;;;;;;2.83;0.60;;;28.80;59.20;;;;;;5041595;28;87028;-52
2022/08/26 05:26:34;;;;;;;1.40;0.50;;;28.70;59.30;;;;;;5041709;28;87114;-51
2022/08/26 05:29:02;;;;;;;0.77;0.47;;;28.70;59.30;;;;;;5042052;28;89018;-51
2022/08/26 05:31:32;;;;;;;6.23;0.60;;;28.70;59.30;;;;;;5041257;28;88181;-51
2022/08/26 05:34:01;;;;;;;2.03;0.63;;;28.70;59.30;;;;;;5035340;27;87096;-52
2022/08/26 05:36:32;;;;;;;1.13;0.30;;;28.70;59.30;;;;;;5041817;27;86305;-51
2022/08/26 05:39:01;;;;;;;0.20;0.20;;;28.70;59.30;;;;;;5040989;27;90757;-51
2022/08/26 05:41:31;;;;;;;0.40;0.40;;;28.60;59.40;;;;;;5040039;28;89038;-51
2022/08/26 05:44:04;;;;;;;1.23;0.33;;;28.60;59.30;;;;;;5041278;28;88111;-51
2022/08/26 05:46:34;;;;;;;1.30;0.40;;;28.60;59.30;;;;;;5041730;28;86885;-51
2022/08/26 05:49:02;;;;;;;0.63;0.40;;;28.60;59.40;;;;;;5041765;28;89104;-51
2022/08/26 05:51:30;;;;;;;0.73;0.30;;;28.60;59.40;;;;;;5022791;28;87969;-52
2022/08/26 05:53:59;;;;;;;0.30;0.30;;;28.70;59.50;;;;;;5040947;28;87021;-51
2022/08/26 05:56:27;;;;;;;0.87;0.40;;;28.70;59.40;;;;;;5040744;27;87037;-51
2022/08/26 05:58:56;;;;;;;1.20;0.40;;;28.60;59.40;;;;;;5040589;28;89190;-51
2022/08/26 06:01:26;;;;;;;0.93;0.40;;;28.60;59.40;;;;;;5039776;28;88634;-52
2022/08/26 06:03:57;;;;;;;0.63;0.30;;;28.60;59.30;;;;;;5040627;28;86839;-51
2022/08/26 06:06:29;;;;;;;2.00;0.20;;;28.60;59.40;;;;;;5039897;27;87064;-52
2022/08/26 06:08:58;;;;;;;0.87;0.37;;;28.60;59.50;;;;;;5040434;28;88812;-51
2022/08/26 06:11:26;;;;;;;2.40;0.30;;;28.60;59.80;;;;;;5040567;28;89840;-50
2022/08/26 06:13:55;;;;;;;1.03;0.30;;;28.60;59.60;;;;;;5040973;28;87027;-51
2022/08/26 06:16:30;;;;;;;0.40;0.20;;;28.60;59.50;;;;;;5039668;28;87088;-51
2022/08/26 06:18:59;;;;;;;1.83;0.70;;;28.70;59.70;;;;;;5039396;28;89151;-51
2022/08/26 06:21:30;;;;;;;0.20;0.20;;;28.60;59.60;;;;;;5040544;28;88911;-51
2022/08/26 06:26:47;;;;;;;0.20;0.20;;;28.60;60.10;;;;;;5041172;28;86412;-51
2022/08/26 06:29:18;;;;;;;0.20;0.20;;;28.60;59.50;;;;;;5040378;27;89272;-51
2022/08/26 06:31:51;;;;;;;0.20;0.20;;;28.60;59.70;;;;;;5043605;28;88935;-51
2022/08/26 06:34:21;;;;;;;0.37;0.27;;;28.60;59.70;;;;;;5043945;27;87940;-51
2022/08/26 06:36:50;;;;;;;1.80;0.30;;;28.60;59.70;;;;;;5044144;28;86900;-51
2022/08/26 06:39:20;;;;;;;0.83;0.20;;;28.60;59.70;;;;;;5044533;28;88030;-51
2022/08/26 06:41:48;;;;;;;0.87;0.37;;;28.50;59.60;;;;;;5042499;28;89168;-51
2022/08/26 06:44:17;;;;;;;0.20;0.20;;;28.50;59.70;;;;;;5044284;28;86959;-51
2022/08/26 06:46:46;;;;;;;0.23;0.20;;;28.50;59.70;;;;;;5044194;28;87071;-51
2022/08/26 06:49:17;;;;;;;0.43;0.23;;;28.40;59.70;;;;;;5044044;28;89181;-51
2022/08/26 06:51:56;;;;;;;2.37;0.30;;;28.50;59.70;;;;;;5044253;28;89035;-51
2022/08/26 06:54:25;;;;;;;0.30;0.20;;;28.00;59.40;;;;;;5044268;28;87086;-51
2022/08/26 06:56:55;;;;;;;0.40;0.20;;;28.30;59.60;;;;;;5044010;28;86739;-51
2022/08/26 06:59:23;;;;;;;5.43;0.37;;;28.40;59.80;;;;;;5043582;28;90174;-51
2022/08/26 07:01:52;;;;;;;1.80;0.70;;;28.40;59.70;;;;;;5043404;28;89779;-51
2022/08/26 07:04:20;;;;;;;0.30;0.30;;;28.40;59.70;;;;;;5044621;28;86917;-51
2022/08/26 07:06:50;;;;;;;0.17;0.17;;;28.40;59.70;;;;;;5043831;28;87712;-51
2022/08/26 07:09:23;;;;;;;2.53;0.23;;;28.40;59.60;;;;;;5044414;28;89310;-51
2022/08/26 07:11:51;;;;;;;0.27;0.20;;;28.40;59.50;;;;;;5043548;28;89255;-50
2022/08/26 07:14:19;;;;;;;0.37;0.20;;;28.40;59.70;;;;;;5043149;28;89060;-50
2022/08/26 07:16:48;;;;;;;2.17;0.23;;;28.30;59.70;;;;;;5043641;27;86290;-51
2022/08/26 07:19:17;;;;;;;1.43;0.20;;;28.30;59.70;;;;;;5041948;27;89261;-51
2022/08/26 07:21:58;;;;;;;2.00;0.40;;;28.20;59.40;;;;;;5043307;28;88454;-51
2022/08/26 07:24:28;;;;;;;0.57;0.30;;;28.40;59.50;;;;;;5043989;28;87825;-51
2022/08/26 07:26:59;;;;;;;0.77;0.20;;;28.40;59.40;;;;;;5043962;28;87132;-51
2022/08/26 07:29:28;;;;;;;2.07;0.47;;;28.40;59.40;;;;;;5043536;28;89210;-51
2022/08/26 07:31:56;;;;;;;0.30;0.30;;;28.40;59.50;;;;;;5042947;28;87754;-51
2022/08/26 07:34:24;;;;;;;0.40;0.40;;;28.40;59.60;;;;;;5044218;28;87411;-51
2022/08/26 07:36:53;;;;;;;3.37;0.20;;;28.40;59.60;;;;;;5043576;28;86915;-51
2022/08/26 07:39:22;;;;;;;0.27;0.23;;;28.40;59.50;;;;;;5043817;28;89111;-50
2022/08/26 07:41:51;;;;;;;2.50;0.67;;;28.40;59.50;;;;;;5042378;27;87196;-50
2022/08/26 07:44:19;;;;;;;0.17;0.17;;;28.40;59.50;;;;;;5044211;28;87030;-50
2022/08/26 07:46:48;;;;;;;1.20;0.20;;;28.40;59.40;;;;;;5043350;28;87044;-50
2022/08/26 07:49:20;;;;;;;0.20;0.20;;;28.40;59.40;;;;;;5043001;28;90024;-50
2022/08/26 07:51:49;;;;;;;2.00;0.40;;;28.30;59.20;;;;;;5041726;28;89730;-51
2022/08/26 07:54:17;;;;;;;0.77;0.23;;;28.30;59.50;;;;;;5042617;28;87308;-50
2022/08/26 07:56:46;;;;;;;0.83;0.27;;;28.20;59.60;;;;;;5043079;28;87040;-50
2022/08/26 07:59:16;;;;;;;1.00;0.30;;;28.20;59.50;;;;;;5043140;28;89120;-50
2022/08/26 08:01:44;;;;;;;0.70;0.30;;;28.20;59.40;;;;;;5042983;28;88965;-50
2022/08/26 08:04:12;;;;;;;1.13;0.50;;;28.20;59.60;;;;;;5043391;28;86885;-50
2022/08/26 08:06:40;;;;;;;0.97;0.30;;;28.30;59.50;;;;;;5042653;28;86380;-50
2022/08/26 08:09:10;;;;;;;1.03;0.50;;;28.20;59.40;;;;;;5043325;28;89085;-50
2022/08/26 08:11:39;;;;;;;0.87;0.33;;;28.30;59.60;;;;;;5042872;28;88851;-50
2022/08/26 08:14:07;;;;;;;0.57;0.43;;;28.30;59.60;;;;;;5042202;28;88094;-50
2022/08/26 08:16:40;;;;;;;0.40;0.40;;;28.30;59.60;;;;;;5043065;28;86947;-50
2022/08/26 08:19:13;;;;;;;1.13;0.70;;;28.30;59.60;;;;;;5042796;28;89054;-50
2022/08/26 08:21:41;;;;;;;0.50;0.30;;;28.30;59.60;;;;;;5042647;28;89003;-50
2022/08/26 08:24:09;;;;;;;0.30;0.30;;;28.30;59.60;;;;;;5043197;28;87001;-50
2022/08/26 08:26:38;;;;;;;0.33;0.33;;;28.30;59.60;;;;;;5042394;28;86995;-54
2022/08/26 08:29:07;;;;;;;0.60;0.40;;;28.30;59.60;;;;;;5043406;28;87498;-53
2022/08/26 08:31:35;;;;;;;0.83;0.30;;;28.20;59.40;;;;;;5043508;28;88992;-51
2022/08/26 08:34:25;;;;;;;0.33;0.30;;;28.20;59.50;;;;;;5043452;28;87050;-51
2022/08/26 08:36:53;;;;;;;0.53;0.53;;;28.10;59.60;;;;;;5043068;28;87021;-51
2022/08/26 08:39:21;;;;;;;0.40;0.30;;;28.10;59.60;;;;;;5041953;28;90136;-51
2022/08/26 08:41:57;;;;;;;0.30;0.30;;;28.00;59.60;;;;;;5041745;28;89903;-51
2022/08/26 08:44:25;;;;;;;0.30;0.30;;;28.00;59.40;;;;;;5043445;28;86902;-51
2022/08/26 08:46:55;;;;;;;2.23;0.50;;;28.10;59.70;;;;;;5042157;28;86981;-51
2022/08/26 08:49:27;;;;;;;0.60;0.60;;;28.10;59.50;;;;;;5042492;28;89178;-51
2022/08/26 08:51:58;;;;;;;0.40;0.40;;;28.00;59.50;;;;;;5050282;27;88935;-52
2022/08/26 08:54:27;;;;;;;2.50;0.60;;;28.00;59.60;;;;;;5045618;27;86943;-51
2022/08/26 08:56:59;;;;;;;0.70;0.70;;;28.00;59.70;;;;;;5050970;27;86249;-52
2022/08/26 08:59:28;;;;;;;3.67;0.67;;;27.90;59.60;;;;;;5052803;27;89128;-51
2022/08/26 09:02:01;;;;;;;0.63;0.50;;;28.00;59.70;;;;;;5051258;27;88940;-51
2022/08/26 09:04:54;;;;;;;1.50;0.70;;;27.90;59.60;;;;;;5050772;27;88133;-52
2022/08/26 09:07:26;;;;;;;1.20;0.60;;;27.90;59.70;;;;;;5049807;27;87149;-52
2022/08/26 09:09:56;;;;;;;0.40;0.40;;;27.90;60.70;;;;;;5049011;27;89101;-51
2022/08/26 09:12:25;;;;;;;0.80;0.50;;;27.80;59.90;;;;;;5050503;27;91243;-51
2022/08/26 09:15:02;;;;;;;0.50;0.50;;;27.90;60.00;;;;;;5049870;27;87872;-51
2022/08/26 09:17:37;;;;;;;0.30;0.30;;;27.90;60.00;;;;;;5049936;27;87098;-51
2022/08/26 09:20:20;;;;;;;0.40;0.30;;;27.90;59.90;;;;;;5038774;27;89167;-51
2022/08/26 09:22:50;;;;;;;0.23;0.23;;;;;;;;;;5052547;27;88894;-48
2022/08/26 09:25:19;;;;;;;0.20;0.20;;;27.80;90.90;;;;;;5052106;27;87013;-48
2022/08/26 09:27:50;;;;;;;0.40;0.40;;;27.80;83.10;;;;;;5050404;27;87040;-49
2022/08/26 09:30:28;;;;;;;0.50;0.20;;;27.90;85.20;;;;;;5051181;27;90213;-48
2022/08/26 09:33:00;;;;;;;1.80;0.50;;;;;;;;;;5048277;27;89921;-48
2022/08/26 09:35:30;;;;;;;0.10;0.10;;;;;;;;;;5050691;27;86980;-48
2022/08/26 09:37:58;;;;;;;0.30;0.30;;;27.90;90.30;;;;;;5051316;27;87027;-48
2022/08/26 09:40:29;;;;;;;0.20;0.20;;;28.00;89.80;;;;;;5049645;27;89218;-48
2022/08/26 09:43:19;;;;;;;0.47;0.33;;;28.00;88.00;;;;;;5050897;27;89008;-48
2022/08/26 09:45:53;;;;;;;0.43;0.20;;;28.00;87.50;;;;;;5044512;27;86791;-48
2022/08/26 09:48:28;;;;;;;0.20;0.20;;;28.00;88.30;;;;;;5042023;28;86196;-48
2022/08/26 09:50:58;;;;;;;0.27;0.27;;;27.90;87.60;;;;;;5041677;28;88194;-48
2022/08/26 09:53:29;;;;;;;2.67;0.50;;;28.00;87.20;;;;;;5041141;28;87808;-48
2022/08/26 09:56:15;;;;;;;0.20;0.20;;;;;;;;;;5041150;28;87913;-48
2022/08/26 09:58:45;;;;;;;0.20;0.20;;;;;;;;;;5036315;28;88067;-48
2022/08/26 10:01:25;;;;;;;1.70;0.50;;;27.90;89.90;;;;;;5038160;28;89152;-48
2022/08/26 10:03:53;;;;;;;0.50;0.50;;;;;;;;;;5055006;27;88967;-48
2022/08/26 10:06:25;;;;;;;0.50;0.50;;;27.90;90.50;;;;;;5047883;27;87048;-48
2022/08/26 10:08:55;;;;;;;0.50;0.40;;;;;;;;;;5041428;28;86835;-48
2022/08/26 10:11:29;;;;;;;0.83;0.50;;;27.90;90.70;;;;;;5041106;28;89111;-45
2022/08/26 10:13:59;;;;;;;0.50;0.50;;;;;;;;;;5041422;28;89930;-45
2022/08/26 10:16:28;;;;;;;0.60;0.60;;;;;;;;;;5040727;28;87050;-46
2022/08/26 10:18:57;;;;;;;0.60;0.30;;;;;;;;;;5041177;28;87064;-45
2022/08/26 10:21:30;;;;;;;1.83;0.40;;;27.80;88.90;;;;;;5040674;28;90012;-45
2022/08/26 10:23:59;;;;;;;0.83;0.47;;;;;;;;;;5040957;28;89796;-45
2022/08/26 10:26:35;;;;;;;2.10;0.43;;;;;;;;;;5041544;28;86995;-45
2022/08/26 10:29:09;;;;;;;2.27;0.60;;;;;;;;;;5041778;28;86718;-45
2022/08/26 10:31:39;;;;;;;1.63;0.63;;;;;;;;;;5041427;28;88707;-44
2022/08/26 10:34:08;;;;;;;0.47;0.40;;;;;;;;;;5041055;27;89079;-44
2022/08/26 10:36:51;;;;;;;1.13;0.40;;;;;;;;;;5041273;28;87061;-46
2022/08/26 10:39:42;;;;;;;4.03;0.43;;;;;;;;;;5041534;28;86225;-46
2022/08/26 10:42:20;;;;;;;1.03;0.30;;;;;;;;;;5040933;28;89160;-46
2022/08/26 10:44:49;;;;;;;1.40;0.33;;;;;;;;;;5041441;28;88910;-46
2022/08/26 10:47:18;;;;;;;2.73;0.40;;;;;;;;;;5040530;28;87973;-46
2022/08/26 10:49:46;;;;;;;4.60;0.30;;;;;;;;;;5041112;28;87011;-44
2022/08/26 10:52:17;;;;;;;3.00;0.70;;;;;;;;;;5041392;28;89187;-45
2022/08/26 10:54:47;;;;;;;3.03;0.67;;;;;;;;;;5041511;28;88925;-46
2022/08/26 10:57:16;;;;;;;0.77;0.47;;;;;;;;;;5023197;28;86955;-46
2022/08/26 10:59:49;;;;;;;1.00;0.50;;;;;;;;;;5041797;28;87102;-46
2022/08/26 11:02:21;;;;;;;0.60;0.47;;;;;;;;;;5040829;28;88066;-46
2022/08/26 11:04:54;;;;;;;6.97;0.77;;;;;;;;;;5042054;28;88893;-46
2022/08/26 11:07:40;;;;;;;1.33;0.50;;;;;;;;;;5040506;28;87092;-46
2022/08/26 11:10:11;;;;;;;0.20;0.20;;;;;;;;;;5040665;28;86916;-46
2022/08/26 11:12:49;;;;;;;0.20;0.20;;;;;;;;;;5039927;28;90256;-46
2022/08/26 11:15:35;;;;;;;0.43;0.40;;;;;;;;;;5040433;27;89927;-46
2022/08/26 11:18:04;;;;;;;0.70;0.70;;;;;;;;;;5031967;28;87200;-46
2022/08/26 11:20:33;;;;;;;0.60;0.60;;;;;;;;;;5044759;28;86949;-46
2022/08/26 11:23:21;;;;;;;0.63;0.40;;;;;;;;;;5044106;28;89168;-46
2022/08/26 11:26:05;;;;;;;0.83;0.67;;;;;;;;;;5044587;28;87739;-46
2022/08/26 11:28:37;;;;;;;0.40;0.30;;;;;;;;;;5044214;28;86971;-46
2022/08/26 11:31:06;;;;;;;2.23;0.50;;;;;;;;;;5044735;28;86250;-46
2022/08/26 11:33:57;;;;;;;0.33;0.33;;;27.30;71.20;;;;;;5044103;28;89146;-45
2022/08/26 11:36:42;;;;;;;4.23;0.70;;;27.20;73.90;;;;;;5043735;28;90359;-46
2022/08/26 11:39:16;;;;;;;1.70;0.97;;;27.30;73.70;;;;;;5043378;28;87963;-45
2022/08/26 11:41:44;;;;;;;0.27;0.20;;;27.20;74.30;;;;;;5043505;28;86917;-46
2022/08/26 11:44:18;;;;;;;0.40;0.40;;;27.30;75.10;;;;;;5043877;28;88563;-48
2022/08/26 11:46:55;;;;;;;1.87;0.40;;;27.30;75.90;;;;;;5043522;27;88819;-45
2022/08/26 11:49:24;;;;;;;0.20;0.20;;;;;;;;;;5043825;28;86949;-46
2022/08/26 11:51:52;;;;;;;0.43;0.37;;;27.30;93.20;;;;;;5044277;28;86862;-46
2022/08/26 11:54:23;;;;;;;0.63;0.50;;;;;;;;;;5042725;28;89028;-46
2022/08/26 11:57:03;;;;;;;2.80;1.03;;;;;;;;;;5042783;28;88850;-46
2022/08/26 11:59:39;;;;;;;1.00;0.70;;;27.30;89.90;;;;;;5043467;28;87052;-46
2022/08/26 12:02:12;;;;;;;1.17;1.03;;;27.30;88.00;;;;;;5043579;28;86941;-46
2022/08/26 12:04:40;;;;;;;0.67;0.63;;;27.30;87.10;;;;;;5042607;28;90220;-46
2022/08/26 12:07:09;;;;;;;0.80;0.30;;;;;;;;;;5043330;28;89740;-45
2022/08/26 12:09:38;;;;;;;1.90;0.70;;;;;;;;;;5042602;28;87001;-46
2022/08/26 12:12:10;;;;;;;0.40;0.30;;;27.40;88.30;;;;;;5043359;28;87021;-46
2022/08/26 12:14:40;;;;;;;0.30;0.30;;;27.50;81.80;;;;;;5043220;28;89085;-46
2022/08/26 12:17:09;;;;;;;1.93;0.40;;;27.50;87.20;;;;;;5043099;28;88895;-47
2022/08/26 12:19:38;;;;;;;1.43;0.57;;;27.50;84.60;;;;;;5045699;27;87029;-47
2022/08/26 12:22:08;;;;;;;1.70;0.43;;;27.50;87.30;;;;;;5053690;27;86269;-50
2022/08/26 12:24:37;;;;;;;3.00;0.47;;;27.50;87.90;;;;;;5051257;27;89084;-48
2022/08/26 12:27:13;;;;;;;0.57;0.30;;;27.50;85.90;;;;;;5050013;27;89155;-48
2022/08/26 12:29:43;;;;;;;0.33;0.33;;;27.40;85.40;;;;;;5050088;27;89102;-48
2022/08/26 12:32:17;;;;;;;0.80;0.53;;;;;;;;;;5049467;27;86864;-48
2022/08/26 12:34:46;;;;;;;1.90;0.40;;;;;;;;;;5050208;27;89132;-48
2022/08/26 12:37:15;;;;;;;0.33;0.30;;;;;;;;;;5050909;27;89008;-48
2022/08/26 12:39:46;;;;;;;0.43;0.43;;;27.40;83.90;;;;;;5041167;27;87074;-48
2022/08/26 12:42:39;;;;;;;3.10;0.60;;;27.50;85.40;;;;;;5040733;28;87061;-48
2022/08/26 12:45:09;;;;;;;0.20;0.20;;;27.50;85.30;;;;;;5039962;28;89026;-48
2022/08/26 12:47:38;;;;;;;1.33;0.60;;;;;;;;;;5039716;28;89745;-48
2022/08/26 12:50:12;;;;;;;0.70;0.20;;;;;;;;;;5051749;27;86962;-48
2022/08/26 12:52:42;;;;;;;1.80;0.30;;;;;;;;;;5041531;28;87172;-48
2022/08/26 12:55:19;;;;;;;0.60;0.47;;;27.50;83.00;;;;;;5038039;28;90113;-48
2022/08/26 12:57:48;;;;;;;0.33;0.33;;;;;;;;;;5041070;28;89948;-48
2022/08/26 13:00:34;;;;;;;0.37;0.37;;;;;;;;;;5041033;28;86960;-49
2022/08/26 13:03:03;;;;;;;0.63;0.40;;;;;;;;;;5040961;28;86972;-48
2022/08/26 13:05:33;;;;;;;0.70;0.30;;;;;;;;;;5023414;28;89255;-48
2022/08/26 13:08:15;;;;;;;0.30;0.30;;;27.60;82.40;;;;;;5041506;28;88840;-48
2022/08/26 13:10:45;;;;;;;2.10;0.73;;;27.60;83.50;;;;;;5052093;27;86965;-48
2022/08/26 13:13:13;;;;;;;1.43;0.30;;;27.60;83.80;;;;;;5022645;28;86326;-48
2022/08/26 13:15:43;;;;;;;0.60;0.60;;;27.60;83.10;;;;;;5022505;28;88154;-48
2022/08/26 13:18:12;;;;;;;2.30;0.50;;;27.60;81.40;;;;;;5023013;28;88428;-48
2022/08/26 13:20:42;;;;;;;0.37;0.30;;;27.50;82.70;;;;;;5021916;28;87887;-47
2022/08/26 13:23:10;;;;;;;0.20;0.20;;;27.50;80.80;;;;;;5022243;28;87026;-48
2022/08/26 13:25:39;;;;;;;1.60;0.30;;;27.40;81.10;;;;;;5022054;28;89246;-48
2022/08/26 13:28:08;;;;;;;0.53;0.30;;;27.40;80.40;;;;;;5022439;28;87158;-48